ANZ659 NZCH-NZQN
Flight info
| Callsign | ANZ659 |
|---|---|
| Flight time | 0h 44m |
| Altitude | 30000 |
| Route | GUPUT Y266 ELRUV |
| Aircraft | A320/M-SDE3FGHIRWY/LB1 |
Departure
| Time | 2026-04-28 20:14 |
|---|---|
| Airport | Christchurch International Airport (NZCH) |
Arrival
| Time | 2026-04-28 20:58 |
|---|---|
| Airport | Queenstown Airport (NZQN) |
| Time | Latitude | Longitude | Altitude | Speed | Heading |
|---|---|---|---|---|---|
| 2026-04-28 19:50 | -43.48839 | 172.53817 | 108 ft | 0 kts | 130° |
| 2026-04-28 20:06 | -43.48838 | 172.53814 | 109 ft | 2 kts | 130° |
| 2026-04-28 20:07 | -43.48821 | 172.53787 | 108 ft | 4 kts | 132° |
| 2026-04-28 20:07 | -43.48809 | 172.53769 | 109 ft | 4 kts | 134° |
| 2026-04-28 20:07 | -43.48783 | 172.53734 | 108 ft | 4 kts | 142° |
| 2026-04-28 20:07 | -43.48760 | 172.53716 | 108 ft | 4 kts | 172° |
| 2026-04-28 20:08 | -43.48747 | 172.53716 | 107 ft | 2 kts | 217° |
| 2026-04-28 20:08 | -43.48745 | 172.53718 | 107 ft | 0 kts | 220° |
| 2026-04-28 20:09 | -43.48776 | 172.53682 | 109 ft | 14 kts | 220° |
| 2026-04-28 20:10 | -43.48886 | 172.53558 | 109 ft | 23 kts | 214° |
| 2026-04-28 20:10 | -43.49011 | 172.53424 | 112 ft | 23 kts | 219° |
| 2026-04-28 20:10 | -43.49150 | 172.53260 | 115 ft | 28 kts | 221° |
| 2026-04-28 20:10 | -43.49307 | 172.53081 | 118 ft | 27 kts | 219° |
| 2026-04-28 20:11 | -43.49455 | 172.52911 | 125 ft | 28 kts | 221° |
| 2026-04-28 20:11 | -43.49611 | 172.52731 | 126 ft | 32 kts | 219° |
| 2026-04-28 20:11 | -43.49768 | 172.52548 | 126 ft | 26 kts | 220° |
| 2026-04-28 20:11 | -43.49793 | 172.52402 | 126 ft | 10 kts | 279° |
| 2026-04-28 20:12 | -43.49793 | 172.52397 | 126 ft | 0 kts | 278° |
| 2026-04-28 20:12 | -43.49792 | 172.52395 | 126 ft | 2 kts | 278° |
| 2026-04-28 20:12 | -43.49784 | 172.52292 | 123 ft | 19 kts | 283° |
| 2026-04-28 20:12 | -43.49682 | 172.52307 | 122 ft | 19 kts | 41° |
| 2026-04-28 20:13 | -43.49531 | 172.52481 | 124 ft | 53 kts | 39° |
| 2026-04-28 20:13 | -43.49073 | 172.53008 | 114 ft | 116 kts | 40° |
| 2026-04-28 20:13 | -43.48331 | 172.53866 | 124 ft | 159 kts | 40° |
| 2026-04-28 20:13 | -43.47508 | 172.54858 | 631 ft | 161 kts | 41° |
| 2026-04-28 20:14 | -43.46577 | 172.55848 | 1013 ft | 177 kts | 27° |
| 2026-04-28 20:14 | -43.45399 | 172.56630 | 1263 ft | 199 kts | 21° |
| 2026-04-28 20:14 | -43.44053 | 172.57401 | 1606 ft | 217 kts | 20° |
| 2026-04-28 20:14 | -43.42642 | 172.58213 | 2331 ft | 222 kts | 20° |
| 2026-04-28 20:15 | -43.41216 | 172.59060 | 3051 ft | 226 kts | 21° |
| 2026-04-28 20:15 | -43.39735 | 172.59784 | 3766 ft | 226 kts | 1° |
| 2026-04-28 20:15 | -43.38252 | 172.59303 | 4442 ft | 221 kts | 320° |
| 2026-04-28 20:15 | -43.37373 | 172.57644 | 5102 ft | 218 kts | 282° |
| 2026-04-28 20:16 | -43.37402 | 172.55587 | 5782 ft | 219 kts | 251° |
| 2026-04-28 20:16 | -43.37898 | 172.53592 | 6515 ft | 223 kts | 250° |
| 2026-04-28 20:16 | -43.38412 | 172.51564 | 7217 ft | 226 kts | 250° |
| 2026-04-28 20:16 | -43.39197 | 172.49698 | 7906 ft | 230 kts | 225° |
| 2026-04-28 20:17 | -43.40547 | 172.48466 | 8427 ft | 245 kts | 199° |
| 2026-04-28 20:17 | -43.42322 | 172.48142 | 8734 ft | 271 kts | 183° |
| 2026-04-28 20:17 | -43.44253 | 172.48070 | 9263 ft | 283 kts | 183° |
| 2026-04-28 20:17 | -43.46246 | 172.47997 | 10004 ft | 289 kts | 183° |
| 2026-04-28 20:18 | -43.48304 | 172.47914 | 10396 ft | 307 kts | 184° |
| 2026-04-28 20:18 | -43.49746 | 172.47766 | 10511 ft | 321 kts | 191° |
| 2026-04-28 20:18 | -43.52624 | 172.46416 | 11099 ft | 332 kts | 211° |
| 2026-04-28 20:18 | -43.54496 | 172.44533 | 11725 ft | 335 kts | 226° |
| 2026-04-28 20:19 | -43.55953 | 172.42029 | 12381 ft | 337 kts | 241° |
| 2026-04-28 20:19 | -43.57088 | 172.39193 | 13052 ft | 340 kts | 243° |
| 2026-04-28 20:19 | -43.58228 | 172.36310 | 13733 ft | 344 kts | 243° |
| 2026-04-28 20:19 | -43.59383 | 172.33408 | 14354 ft | 347 kts | 243° |
| 2026-04-28 20:20 | -43.60550 | 172.30480 | 14960 ft | 350 kts | 243° |
| 2026-04-28 20:20 | -43.61707 | 172.27568 | 15557 ft | 352 kts | 243° |
| 2026-04-28 20:20 | -43.62887 | 172.24595 | 16160 ft | 354 kts | 243° |
| 2026-04-28 20:20 | -43.64075 | 172.21599 | 16762 ft | 357 kts | 243° |
| 2026-04-28 20:21 | -43.65267 | 172.18591 | 17363 ft | 359 kts | 243° |
| 2026-04-28 20:21 | -43.66473 | 172.15555 | 17966 ft | 362 kts | 243° |
| 2026-04-28 20:21 | -43.67687 | 172.12502 | 18564 ft | 364 kts | 243° |
| 2026-04-28 20:21 | -43.68909 | 172.09414 | 19096 ft | 367 kts | 243° |
| 2026-04-28 20:22 | -43.70139 | 172.06304 | 19628 ft | 370 kts | 243° |
| 2026-04-28 20:22 | -43.71377 | 172.03169 | 20159 ft | 373 kts | 243° |
| 2026-04-28 20:22 | -43.72624 | 171.99997 | 20699 ft | 376 kts | 243° |
| 2026-04-28 20:22 | -43.73875 | 171.96805 | 21213 ft | 380 kts | 243° |
| 2026-04-28 20:23 | -43.75139 | 171.93584 | 21746 ft | 382 kts | 243° |
| 2026-04-28 20:23 | -43.76411 | 171.90343 | 22275 ft | 385 kts | 243° |
| 2026-04-28 20:23 | -43.77696 | 171.87069 | 22779 ft | 388 kts | 243° |
| 2026-04-28 20:23 | -43.78986 | 171.83775 | 23259 ft | 391 kts | 243° |
| 2026-04-28 20:24 | -43.80287 | 171.80450 | 23743 ft | 394 kts | 243° |
| 2026-04-28 20:24 | -43.81595 | 171.77100 | 24145 ft | 397 kts | 243° |
| 2026-04-28 20:24 | -43.82913 | 171.73722 | 24540 ft | 400 kts | 243° |
| 2026-04-28 20:24 | -43.84248 | 171.70319 | 24930 ft | 403 kts | 242° |
| 2026-04-28 20:25 | -43.85644 | 171.66937 | 25305 ft | 406 kts | 241° |
| 2026-04-28 20:25 | -43.87091 | 171.63567 | 25693 ft | 409 kts | 240° |
| 2026-04-28 20:25 | -43.88568 | 171.60186 | 26070 ft | 411 kts | 240° |
| 2026-04-28 20:25 | -43.90057 | 171.56786 | 26438 ft | 414 kts | 240° |
| 2026-04-28 20:26 | -43.91545 | 171.53354 | 26813 ft | 416 kts | 241° |
| 2026-04-28 20:26 | -43.93026 | 171.49899 | 27186 ft | 418 kts | 241° |
| 2026-04-28 20:26 | -43.94502 | 171.46411 | 27543 ft | 420 kts | 241° |
| 2026-04-28 20:26 | -43.95980 | 171.42904 | 27891 ft | 422 kts | 241° |
| 2026-04-28 20:27 | -43.97468 | 171.39378 | 28241 ft | 425 kts | 241° |
| 2026-04-28 20:27 | -43.98951 | 171.35874 | 28571 ft | 427 kts | 241° |
| 2026-04-28 20:27 | -44.00458 | 171.32314 | 28913 ft | 430 kts | 241° |
| 2026-04-28 20:27 | -44.01976 | 171.28720 | 29249 ft | 432 kts | 241° |
| 2026-04-28 20:28 | -44.03499 | 171.25101 | 29602 ft | 434 kts | 241° |
| 2026-04-28 20:28 | -44.05025 | 171.21470 | 29941 ft | 436 kts | 241° |
| 2026-04-28 20:28 | -44.06557 | 171.17818 | 30183 ft | 438 kts | 241° |
| 2026-04-28 20:28 | -44.08070 | 171.14215 | 30223 ft | 426 kts | 241° |
| 2026-04-28 20:29 | -44.09554 | 171.10675 | 30217 ft | 421 kts | 242° |
| 2026-04-28 20:29 | -44.12486 | 171.03674 | 30222 ft | 418 kts | 242° |
| 2026-04-28 20:30 | -44.15408 | 170.96670 | 30220 ft | 418 kts | 242° |
| 2026-04-28 20:30 | -44.18321 | 170.89664 | 30227 ft | 418 kts | 242° |
| 2026-04-28 20:31 | -44.21245 | 170.82624 | 30228 ft | 421 kts | 242° |
| 2026-04-28 20:31 | -44.24174 | 170.75560 | 30233 ft | 421 kts | 243° |
| 2026-04-28 20:32 | -44.27093 | 170.68471 | 30225 ft | 422 kts | 243° |
| 2026-04-28 20:32 | -44.30015 | 170.61374 | 30222 ft | 422 kts | 242° |
| 2026-04-28 20:33 | -44.32938 | 170.54271 | 30236 ft | 422 kts | 242° |
| 2026-04-28 20:33 | -44.35837 | 170.47206 | 30247 ft | 422 kts | 243° |
| 2026-04-28 20:34 | -44.38742 | 170.40091 | 30250 ft | 421 kts | 243° |
| 2026-04-28 20:34 | -44.41644 | 170.32984 | 30250 ft | 421 kts | 243° |
| 2026-04-28 20:35 | -44.44541 | 170.25873 | 30253 ft | 420 kts | 243° |
| 2026-04-28 20:35 | -44.47426 | 170.18758 | 30251 ft | 420 kts | 243° |
| 2026-04-28 20:36 | -44.50303 | 170.11647 | 30258 ft | 420 kts | 243° |
| 2026-04-28 20:36 | -44.53179 | 170.04535 | 30263 ft | 419 kts | 243° |
| 2026-04-28 20:37 | -44.56039 | 169.97428 | 30263 ft | 418 kts | 243° |
| 2026-04-28 20:37 | -44.58886 | 169.90320 | 30262 ft | 418 kts | 243° |
| 2026-04-28 20:37 | -44.60301 | 169.86791 | 30056 ft | 411 kts | 243° |
| 2026-04-28 20:38 | -44.61688 | 169.83335 | 29774 ft | 402 kts | 243° |
| 2026-04-28 20:38 | -44.63050 | 169.79948 | 29488 ft | 395 kts | 243° |
| 2026-04-28 20:38 | -44.64393 | 169.76605 | 29213 ft | 392 kts | 244° |
| 2026-04-28 20:38 | -44.65722 | 169.73284 | 28943 ft | 388 kts | 244° |
| 2026-04-28 20:39 | -44.67030 | 169.69995 | 28674 ft | 385 kts | 244° |
| 2026-04-28 20:39 | -44.68316 | 169.66755 | 28408 ft | 383 kts | 244° |
| 2026-04-28 20:39 | -44.69624 | 169.63456 | 28133 ft | 380 kts | 244° |
| 2026-04-28 20:39 | -44.70908 | 169.60216 | 27874 ft | 378 kts | 244° |
| 2026-04-28 20:40 | -44.72168 | 169.57035 | 27639 ft | 376 kts | 245° |
| 2026-04-28 20:40 | -44.73451 | 169.53797 | 27375 ft | 373 kts | 245° |
| 2026-04-28 20:40 | -44.74698 | 169.50654 | 27119 ft | 371 kts | 245° |
| 2026-04-28 20:40 | -44.75949 | 169.47495 | 26864 ft | 369 kts | 245° |
| 2026-04-28 20:41 | -44.77194 | 169.44344 | 26612 ft | 367 kts | 245° |
| 2026-04-28 20:41 | -44.78426 | 169.41213 | 26371 ft | 364 kts | 245° |
| 2026-04-28 20:41 | -44.79646 | 169.38110 | 26052 ft | 361 kts | 245° |
| 2026-04-28 20:41 | -44.80855 | 169.35034 | 25656 ft | 359 kts | 245° |
| 2026-04-28 20:42 | -44.81886 | 169.31858 | 25252 ft | 354 kts | 255° |
| 2026-04-28 20:42 | -44.82629 | 169.28565 | 24835 ft | 352 kts | 255° |
| 2026-04-28 20:42 | -44.83365 | 169.25286 | 24433 ft | 351 kts | 255° |
| 2026-04-28 20:42 | -44.84101 | 169.22014 | 24014 ft | 350 kts | 255° |
| 2026-04-28 20:43 | -44.84841 | 169.18743 | 23558 ft | 350 kts | 255° |
| 2026-04-28 20:43 | -44.85577 | 169.15492 | 23112 ft | 348 kts | 255° |
| 2026-04-28 20:43 | -44.86310 | 169.12241 | 22678 ft | 346 kts | 255° |
| 2026-04-28 20:43 | -44.87029 | 169.09038 | 22238 ft | 343 kts | 255° |
| 2026-04-28 20:44 | -44.87747 | 169.05823 | 21815 ft | 342 kts | 255° |
| 2026-04-28 20:44 | -44.88458 | 169.02637 | 21388 ft | 340 kts | 255° |
| 2026-04-28 20:44 | -44.89164 | 168.99464 | 20959 ft | 338 kts | 255° |
| 2026-04-28 20:44 | -44.89865 | 168.96318 | 20534 ft | 336 kts | 255° |
| 2026-04-28 20:45 | -44.90557 | 168.93183 | 20115 ft | 333 kts | 257° |
| 2026-04-28 20:45 | -44.90930 | 168.89991 | 19697 ft | 328 kts | 270° |
| 2026-04-28 20:45 | -44.90864 | 168.86785 | 19284 ft | 326 kts | 274° |
| 2026-04-28 20:45 | -44.90751 | 168.83605 | 18873 ft | 324 kts | 274° |
| 2026-04-28 20:46 | -44.90640 | 168.80448 | 18466 ft | 320 kts | 274° |
| 2026-04-28 20:46 | -44.90530 | 168.77315 | 18026 ft | 319 kts | 274° |
| 2026-04-28 20:46 | -44.90423 | 168.74208 | 17628 ft | 316 kts | 274° |
| 2026-04-28 20:46 | -44.90318 | 168.71122 | 17225 ft | 314 kts | 274° |
| 2026-04-28 20:47 | -44.90227 | 168.68058 | 16830 ft | 312 kts | 270° |
| 2026-04-28 20:47 | -44.90500 | 168.65026 | 16437 ft | 312 kts | 258° |
| 2026-04-28 20:47 | -44.91291 | 168.62174 | 16049 ft | 313 kts | 246° |
| 2026-04-28 20:47 | -44.92271 | 168.59446 | 15658 ft | 311 kts | 247° |
| 2026-04-28 20:48 | -44.93239 | 168.56729 | 15272 ft | 308 kts | 247° |
| 2026-04-28 20:48 | -44.94179 | 168.54069 | 14893 ft | 306 kts | 248° |
| 2026-04-28 20:48 | -44.95124 | 168.51384 | 14514 ft | 305 kts | 248° |
| 2026-04-28 20:48 | -44.96065 | 168.48708 | 14135 ft | 303 kts | 248° |
| 2026-04-28 20:49 | -44.97001 | 168.46059 | 13714 ft | 299 kts | 249° |
| 2026-04-28 20:49 | -44.97919 | 168.43455 | 13319 ft | 295 kts | 250° |
| 2026-04-28 20:49 | -44.98832 | 168.40851 | 12796 ft | 295 kts | 250° |
| 2026-04-28 20:49 | -44.99740 | 168.38262 | 12421 ft | 292 kts | 250° |
| 2026-04-28 20:50 | -45.00635 | 168.35711 | 12042 ft | 288 kts | 250° |
| 2026-04-28 20:50 | -45.01520 | 168.33193 | 11696 ft | 284 kts | 250° |
| 2026-04-28 20:50 | -45.02411 | 168.30735 | 11399 ft | 276 kts | 246° |
| 2026-04-28 20:50 | -45.03562 | 168.28585 | 11036 ft | 275 kts | 234° |
| 2026-04-28 20:51 | -45.05034 | 168.26862 | 10659 ft | 276 kts | 221° |
| 2026-04-28 20:51 | -45.06760 | 168.25666 | 10321 ft | 281 kts | 208° |
| 2026-04-28 20:51 | -45.08711 | 168.25036 | 9936 ft | 295 kts | 193° |
| 2026-04-28 20:51 | -45.10090 | 168.25000 | 9663 ft | 303 kts | 182° |
| 2026-04-28 20:52 | -45.12873 | 168.25980 | 9124 ft | 316 kts | 158° |
| 2026-04-28 20:52 | -45.14685 | 168.27758 | 8701 ft | 321 kts | 135° |
| 2026-04-28 20:52 | -45.15945 | 168.30371 | 8290 ft | 324 kts | 110° |
| 2026-04-28 20:52 | -45.16454 | 168.33390 | 8027 ft | 308 kts | 89° |
| 2026-04-28 20:53 | -45.15379 | 168.39054 | 7347 ft | 297 kts | 56° |
| 2026-04-28 20:53 | -45.14436 | 168.41598 | 6922 ft | 294 kts | 56° |
| 2026-04-28 20:53 | -45.13478 | 168.44153 | 6356 ft | 293 kts | 57° |
| 2026-04-28 20:54 | -45.12527 | 168.46678 | 5928 ft | 284 kts | 58° |
| 2026-04-28 20:54 | -45.11634 | 168.49068 | 5796 ft | 265 kts | 58° |
| 2026-04-28 20:54 | -45.10805 | 168.51297 | 5670 ft | 248 kts | 58° |
| 2026-04-28 20:54 | -45.10003 | 168.53442 | 5150 ft | 248 kts | 58° |
| 2026-04-28 20:55 | -45.09180 | 168.55617 | 4476 ft | 253 kts | 58° |
| 2026-04-28 20:55 | -45.08351 | 168.57805 | 3988 ft | 251 kts | 60° |
| 2026-04-28 20:55 | -45.07535 | 168.59963 | 3518 ft | 244 kts | 60° |
| 2026-04-28 20:55 | -45.06770 | 168.61988 | 3078 ft | 224 kts | 58° |
| 2026-04-28 20:56 | -45.06005 | 168.63774 | 2792 ft | 199 kts | 55° |
| 2026-04-28 20:56 | -45.05268 | 168.65285 | 2525 ft | 174 kts | 52° |
| 2026-04-28 20:56 | -45.04599 | 168.66580 | 2414 ft | 155 kts | 52° |
| 2026-04-28 20:56 | -45.03952 | 168.67758 | 2194 ft | 148 kts | 50° |
| 2026-04-28 20:57 | -45.03309 | 168.68886 | 1961 ft | 147 kts | 48° |
| 2026-04-28 20:57 | -45.02698 | 168.70038 | 1749 ft | 146 kts | 62° |
| 2026-04-28 20:57 | -45.02352 | 168.71401 | 1562 ft | 148 kts | 75° |
| 2026-04-28 20:57 | -45.02113 | 168.72811 | 1325 ft | 147 kts | 79° |
| 2026-04-28 20:58 | -45.01908 | 168.74179 | 1167 ft | 131 kts | 77° |
| 2026-04-28 20:58 | -45.01772 | 168.75032 | 1164 ft | 58 kts | 78° |
| 2026-04-28 20:58 | -45.01704 | 168.75474 | 1185 ft | 29 kts | 74° |
| 2026-04-28 20:58 | -45.01678 | 168.75683 | 1185 ft | 10 kts | 115° |
| 2026-04-28 20:59 | -45.01748 | 168.75687 | 1181 ft | 12 kts | 234° |
| 2026-04-28 20:59 | -45.01778 | 168.75540 | 1182 ft | 21 kts | 257° |
| 2026-04-28 20:59 | -45.01803 | 168.75374 | 1181 ft | 29 kts | 258° |
| 2026-04-28 20:59 | -45.01866 | 168.74990 | 1164 ft | 32 kts | 258° |
| 2026-04-28 21:00 | -45.01914 | 168.74678 | 1163 ft | 33 kts | 258° |
| 2026-04-28 21:00 | -45.01966 | 168.74354 | 1165 ft | 31 kts | 258° |
| 2026-04-28 21:00 | -45.01992 | 168.74231 | 1165 ft | 8 kts | 211° |
| 2026-04-28 21:00 | -45.02072 | 168.74261 | 1164 ft | 20 kts | 162° |
| 2026-04-28 21:01 | -45.02152 | 168.74222 | 1164 ft | 15 kts | 271° |
| 2026-04-28 21:01 | -45.02159 | 168.74109 | 1164 ft | 7 kts | 252° |
| 2026-04-28 21:01 | -45.02161 | 168.74102 | 1164 ft | 0 kts | 251° |